Time;durP1;ratioP1;P1;durP2;ratioP2;P2;SDS_P1;SDS_P2;PMS_P1;PMS_P2;Temp;Humidity;BMP_temperature;BMP_pressure;BME280_temperature;BME280_humidity;BME280_pressure;Samples;Min_cycle;Max_cycle;Signal;HPM_P1;HPM_P2
2023/04/14 00:00:24;;;;;;;11.77;4.82;;;4.20;99.90;;;;;;7588413;19;20019;-71
2023/04/14 00:02:56;;;;;;;8.48;3.70;;;4.30;99.90;;;;;;7590409;19;20959;-71
2023/04/14 00:05:30;;;;;;;5.85;3.53;;;4.20;99.90;;;;;;7594526;19;20014;-70
2023/04/14 00:08:02;;;;;;;9.75;4.18;;;4.20;99.90;;;;;;7591135;19;20628;-72
2023/04/14 00:10:34;;;;;;;13.98;5.55;;;4.20;99.90;;;;;;7597527;19;20026;-71
2023/04/14 00:13:07;;;;;;;8.98;3.83;;;4.10;99.90;;;;;;7586177;19;20030;-74
2023/04/14 00:15:41;;;;;;;12.75;4.90;;;4.10;99.90;;;;;;7597107;19;20018;-71
2023/04/14 00:18:15;;;;;;;8.38;3.28;;;4.20;99.90;;;;;;7592321;19;20026;-71
2023/04/14 00:20:47;;;;;;;7.10;3.97;;;4.10;99.90;;;;;;7601789;19;20022;-71
2023/04/14 00:23:20;;;;;;;5.50;3.17;;;4.10;99.90;;;;;;7590189;19;20120;-70
2023/04/14 00:25:52;;;;;;;11.67;4.23;;;4.10;99.90;;;;;;7594054;19;20777;-72
2023/04/14 00:28:25;;;;;;;10.35;4.22;;;4.10;99.90;;;;;;7596668;19;20093;-71
2023/04/14 00:30:57;;;;;;;8.68;4.18;;;4.00;99.90;;;;;;7587346;19;20022;-71
2023/04/14 00:33:29;;;;;;;5.30;2.95;;;4.00;99.90;;;;;;7598492;19;20022;-72
2023/04/14 00:36:02;;;;;;;8.45;3.90;;;4.00;99.90;;;;;;7577739;19;20054;-71
2023/04/14 00:38:34;;;;;;;9.00;3.83;;;4.00;99.90;;;;;;7599117;19;20062;-72
2023/04/14 00:41:07;;;;;;;7.93;4.03;;;3.90;99.90;;;;;;7592038;19;20025;-71
2023/04/14 00:43:39;;;;;;;5.32;3.13;;;4.00;99.90;;;;;;7579017;19;20022;-71
2023/04/14 00:46:15;;;;;;;6.50;3.10;;;3.90;99.90;;;;;;7592452;19;20018;-69
2023/04/14 00:48:48;;;;;;;6.40;3.97;;;4.00;99.90;;;;;;7597108;19;20018;-71
2023/04/14 00:51:21;;;;;;;12.55;4.75;;;3.90;99.90;;;;;;7594644;19;20485;-72
2023/04/14 00:53:55;;;;;;;7.00;4.30;;;3.80;99.90;;;;;;7549184;19;20011;-71
2023/04/14 00:56:31;;;;;;;12.65;4.30;;;3.90;99.90;;;;;;7554420;19;21147;-70
2023/04/14 00:59:06;;;;;;;8.75;4.07;;;3.90;99.90;;;;;;7558686;19;20850;-71
2023/04/14 01:01:39;;;;;;;6.60;3.97;;;3.80;99.90;;;;;;7568575;19;20051;-70
2023/04/14 01:04:15;;;;;;;13.82;4.63;;;3.80;99.90;;;;;;7547337;19;20074;-70
2023/04/14 01:06:49;;;;;;;10.10;4.22;;;3.80;99.90;;;;;;7579615;19;20011;-72
2023/04/14 01:09:23;;;;;;;10.10;4.10;;;3.80;99.90;;;;;;7568018;19;20033;-70
2023/04/14 01:12:14;;;;;;;8.50;3.70;;;3.90;99.90;;;;;;7572970;19;20577;-69
2023/04/14 01:14:54;;;;;;;8.93;4.20;;;3.90;99.90;;;;;;7575686;19;20359;-70
2023/04/14 01:17:36;;;;;;;6.57;3.05;;;4.00;99.90;;;;;;7564901;19;21418;-72
2023/04/14 01:20:28;;;;;;;7.80;4.40;;;3.90;99.90;;;;;;7572758;19;20481;-71
2023/04/14 01:23:07;;;;;;;8.23;4.00;;;3.90;99.90;;;;;;7593668;19;20047;-71
2023/04/14 01:26:04;;;;;;;10.50;4.80;;;3.80;99.90;;;;;;7596137;19;20011;-72
2023/04/14 01:29:05;;;;;;;8.65;4.15;;;3.80;99.90;;;;;;7589692;19;20022;-70
2023/04/14 01:31:46;;;;;;;10.48;4.72;;;3.90;99.90;;;;;;7598372;19;20014;-69
2023/04/14 01:34:34;;;;;;;7.82;3.88;;;3.90;99.90;;;;;;7583643;19;20018;-70
2023/04/14 01:37:13;;;;;;;12.15;4.22;;;3.90;99.90;;;;;;7590273;19;20025;-73
2023/04/14 01:39:51;;;;;;;11.57;5.25;;;3.90;99.90;;;;;;7598616;19;20367;-71
2023/04/14 01:42:31;;;;;;;10.52;4.97;;;3.70;99.90;;;;;;7592435;19;20022;-71
2023/04/14 01:45:10;;;;;;;8.30;5.40;;;3.80;99.90;;;;;;7587941;19;20025;-70
2023/04/14 01:47:45;;;;;;;13.85;5.15;;;3.70;99.90;;;;;;7594338;19;20954;-71
2023/04/14 01:50:19;;;;;;;12.48;5.78;;;3.80;99.90;;;;;;7588177;19;20018;-70
2023/04/14 01:52:53;;;;;;;7.97;5.10;;;3.90;99.90;;;;;;7598042;19;20486;-70
2023/04/14 01:55:27;;;;;;;8.90;4.78;;;3.90;99.90;;;;;;7592515;19;20027;-72
2023/04/14 01:58:02;;;;;;;11.65;5.28;;;3.90;99.90;;;;;;7595475;19;20024;-71
2023/04/14 02:00:38;;;;;;;10.98;5.07;;;3.80;99.90;;;;;;7593324;19;20094;-71
2023/04/14 02:03:11;;;;;;;9.57;4.75;;;3.80;99.90;;;;;;7589661;19;20017;-70
2023/04/14 02:05:46;;;;;;;11.98;5.78;;;3.90;99.90;;;;;;7594266;19;21043;-71
2023/04/14 02:08:20;;;;;;;8.88;5.38;;;3.80;99.90;;;;;;7593860;19;20659;-72
2023/04/14 02:10:53;;;;;;;9.50;4.90;;;3.80;99.90;;;;;;7595857;19;20011;-71
2023/04/14 02:13:28;;;;;;;9.00;4.50;;;3.90;99.90;;;;;;7589063;19;20024;-71
2023/04/14 02:16:01;;;;;;;10.55;4.70;;;3.90;99.90;;;;;;7595433;19;20190;-70
2023/04/14 02:18:35;;;;;;;12.48;4.97;;;3.90;99.90;;;;;;7592528;19;20056;-72
2023/04/14 02:21:10;;;;;;;8.35;4.07;;;3.90;99.90;;;;;;7597182;19;20018;-72
2023/04/14 02:23:43;;;;;;;13.07;4.82;;;4.00;99.90;;;;;;7589276;19;20026;-70
2023/04/14 02:26:21;;;;;;;10.32;4.57;;;3.90;99.90;;;;;;7594424;19;20091;-72
2023/04/14 02:29:08;;;;;;;8.55;4.40;;;3.90;99.90;;;;;;7598492;19;20027;-72
2023/04/14 02:31:51;;;;;;;9.13;4.63;;;4.00;99.90;;;;;;7601733;19;20051;-72
2023/04/14 02:34:27;;;;;;;12.20;4.72;;;3.90;99.90;;;;;;7599340;19;20093;-71
2023/04/14 02:37:02;;;;;;;10.02;4.60;;;3.90;99.90;;;;;;7605884;19;21218;-72
2023/04/14 02:39:42;;;;;;;9.40;4.43;;;3.90;99.90;;;;;;7598709;19;20022;-70
2023/04/14 02:42:15;;;;;;;6.90;4.05;;;3.90;99.90;;;;;;7597476;19;20015;-71
2023/04/14 02:44:50;;;;;;;9.30;4.50;;;4.00;99.90;;;;;;7595924;19;20021;-71
2023/04/14 02:47:33;;;;;;;10.45;4.57;;;4.00;99.90;;;;;;7599872;19;20057;-71
2023/04/14 02:50:11;;;;;;;7.10;3.65;;;4.00;99.90;;;;;;7602025;19;20030;-72
2023/04/14 02:52:50;;;;;;;12.68;4.85;;;4.00;99.90;;;;;;7580909;19;20026;-72
2023/04/14 02:55:26;;;;;;;15.48;5.43;;;4.00;99.90;;;;;;7595219;19;20018;-70
2023/04/14 02:57:59;;;;;;;11.02;4.47;;;4.00;99.90;;;;;;7594689;19;20864;-72
2023/04/14 03:00:35;;;;;;;7.93;4.40;;;4.00;99.90;;;;;;7594705;19;20256;-71
2023/04/14 03:03:10;;;;;;;9.00;4.05;;;4.00;99.90;;;;;;7598223;19;20010;-71
2023/04/14 03:05:45;;;;;;;8.43;4.65;;;3.90;99.90;;;;;;7588604;19;20098;-71
2023/04/14 03:08:19;;;;;;;11.23;3.92;;;3.90;99.90;;;;;;7599143;19;20739;-70
2023/04/14 03:10:54;;;;;;;13.07;4.15;;;4.00;99.90;;;;;;7598215;19;20019;-71
2023/04/14 03:13:32;;;;;;;13.00;5.47;;;4.00;99.90;;;;;;7594792;19;20258;-71
2023/04/14 03:16:05;;;;;;;12.98;5.38;;;3.90;99.90;;;;;;7594060;19;20022;-73
2023/04/14 03:18:39;;;;;;;9.80;4.88;;;3.90;99.90;;;;;;7598551;19;20022;-71
2023/04/14 03:21:15;;;;;;;;;;;3.90;99.90;;;;;;7593048;19;20988;-72
2023/04/14 03:23:50;;;;;;;14.80;5.95;;;3.90;99.90;;;;;;7591067;19;20463;-71
2023/04/14 03:26:26;;;;;;;12.88;5.57;;;3.80;99.90;;;;;;7589462;19;20511;-72
2023/04/14 03:29:01;;;;;;;11.80;5.45;;;3.80;99.90;;;;;;7590477;19;20022;-73
2023/04/14 03:31:36;;;;;;;11.38;5.43;;;3.80;99.90;;;;;;7591456;19;20337;-72
2023/04/14 03:34:12;;;;;;;15.63;6.10;;;3.70;99.90;;;;;;7591406;19;20007;-72
2023/04/14 03:36:49;;;;;;;13.40;5.25;;;3.70;99.90;;;;;;7594987;19;20018;-73
2023/04/14 03:39:30;;;;;;;9.88;5.25;;;3.80;99.90;;;;;;7594463;19;20021;-73
2023/04/14 03:42:06;;;;;;;12.43;6.25;;;3.80;99.90;;;;;;7584632;19;20031;-71
2023/04/14 03:44:44;;;;;;;16.33;6.78;;;3.80;99.90;;;;;;7590309;19;20489;-71
2023/04/14 03:47:18;;;;;;;15.82;6.97;;;3.80;99.90;;;;;;7587687;19;20014;-70
2023/04/14 03:49:55;;;;;;;12.23;5.80;;;3.80;99.90;;;;;;7590793;19;20510;-77
2023/04/14 03:52:32;;;;;;;16.55;7.38;;;3.80;99.90;;;;;;7589666;19;20022;-76
2023/04/14 03:55:06;;;;;;;14.70;6.63;;;3.70;99.90;;;;;;7590744;19;20387;-76
2023/04/14 03:57:42;;;;;;;11.65;5.90;;;3.70;99.90;;;;;;7587259;19;20030;-75
2023/04/14 04:00:18;;;;;;;16.27;6.22;;;3.80;99.90;;;;;;7586358;19;20142;-78
2023/04/14 04:02:53;;;;;;;9.10;4.85;;;3.80;99.90;;;;;;7601973;19;20053;-75
2023/04/14 04:05:27;;;;;;;13.05;5.50;;;3.90;99.90;;;;;;7591504;19;20539;-75
2023/04/14 04:08:01;;;;;;;10.98;6.40;;;3.80;99.90;;;;;;7599039;19;20588;-75
2023/04/14 04:10:36;;;;;;;13.18;6.47;;;3.80;99.90;;;;;;7586505;19;20113;-77
2023/04/14 04:13:14;;;;;;;12.90;5.95;;;3.80;99.90;;;;;;7597434;19;20023;-78
2023/04/14 04:15:48;;;;;;;13.48;6.13;;;3.80;99.90;;;;;;7591101;19;20015;-76
2023/04/14 04:18:24;;;;;;;15.00;6.47;;;3.70;99.90;;;;;;7596136;19;20015;-78
2023/04/14 04:20:58;;;;;;;18.17;7.47;;;3.80;99.90;;;;;;7602775;19;20033;-77
2023/04/14 04:23:35;;;;;;;14.07;6.47;;;3.70;99.90;;;;;;7595794;19;20935;-77
2023/04/14 04:26:07;;;;;;;17.23;7.53;;;3.80;99.90;;;;;;7599010;19;20479;-76
2023/04/14 04:28:43;;;;;;;19.50;8.20;;;3.80;99.90;;;;;;7595952;19;20011;-75
2023/04/14 04:31:19;;;;;;;17.63;8.02;;;3.80;99.90;;;;;;7599760;19;20612;-76
2023/04/14 04:33:51;;;;;;;12.40;6.72;;;3.80;99.90;;;;;;7601096;19;20043;-77
2023/04/14 04:36:30;;;;;;;12.18;6.10;;;3.80;99.90;;;;;;7603219;19;20640;-78
2023/04/14 04:39:03;;;;;;;13.45;6.72;;;3.90;99.90;;;;;;7602996;19;20713;-76
2023/04/14 04:41:40;;;;;;;14.85;7.43;;;4.00;99.90;;;;;;7597918;19;20014;-75
2023/04/14 04:44:12;;;;;;;14.88;7.22;;;3.90;99.90;;;;;;7602917;19;20022;-75
2023/04/14 04:46:52;;;;;;;24.60;10.55;;;4.00;99.90;;;;;;7589378;19;20018;-77
2023/04/14 04:49:28;;;;;;;19.60;8.23;;;3.90;99.90;;;;;;7598503;19;20027;-76
2023/04/14 04:52:06;;;;;;;22.17;9.57;;;4.00;99.90;;;;;;7602792;19;20022;-76
2023/04/14 04:54:38;;;;;;;15.32;6.88;;;3.90;99.90;;;;;;7594265;19;20020;-77
2023/04/14 04:57:10;;;;;;;22.50;9.80;;;4.00;99.90;;;;;;7600329;19;20014;-75
2023/04/14 04:59:43;;;;;;;40.22;13.95;;;4.00;99.90;;;;;;7600203;19;20025;-77
2023/04/14 05:02:15;;;;;;;24.45;9.25;;;4.00;99.90;;;;;;7595344;19;20010;-76
2023/04/14 05:04:47;;;;;;;28.70;11.35;;;4.00;99.90;;;;;;7596133;19;20018;-76
2023/04/14 05:07:20;;;;;;;24.88;9.18;;;4.00;99.90;;;;;;7599435;19;20033;-77
2023/04/14 05:09:53;;;;;;;16.17;8.60;;;4.10;99.90;;;;;;7560063;19;20010;-77
2023/04/14 05:12:25;;;;;;;30.88;10.32;;;4.20;99.90;;;;;;7586478;19;20080;-76
2023/04/14 05:14:58;;;;;;;34.22;14.05;;;4.10;99.90;;;;;;7578189;19;20569;-75
2023/04/14 05:17:30;;;;;;;35.22;14.40;;;4.20;99.90;;;;;;7585992;19;20018;-76
2023/04/14 05:20:04;;;;;;;35.70;13.75;;;4.20;99.90;;;;;;7578581;19;20038;-78
2023/04/14 05:22:36;;;;;;;47.47;17.45;;;4.20;99.90;;;;;;7589203;19;20403;-76
2023/04/14 05:25:12;;;;;;;48.75;19.42;;;4.20;99.90;;;;;;7587854;19;20019;-76
2023/04/14 05:27:44;;;;;;;31.02;13.50;;;4.10;99.90;;;;;;7596229;19;20018;-76
2023/04/14 05:30:16;;;;;;;20.75;11.07;;;4.10;99.90;;;;;;7588354;19;20030;-78
2023/04/14 05:32:49;;;;;;;25.23;11.50;;;4.20;99.90;;;;;;7593506;19;20030;-78
2023/04/14 05:35:23;;;;;;;23.75;11.63;;;4.20;99.90;;;;;;7596021;19;20030;-76
2023/04/14 05:37:56;;;;;;;18.00;10.88;;;4.30;99.90;;;;;;7603269;19;20090;-76
2023/04/14 05:40:28;;;;;;;21.92;10.70;;;4.40;99.90;;;;;;7594711;19;20117;-78
2023/04/14 05:43:01;;;;;;;17.05;8.30;;;4.50;99.90;;;;;;7600513;19;20029;-75
2023/04/14 05:45:33;;;;;;;18.20;8.25;;;4.50;99.90;;;;;;7581054;19;20029;-76
2023/04/14 05:48:06;;;;;;;11.88;7.63;;;4.60;99.90;;;;;;7580098;19;20022;-77
2023/04/14 05:50:38;;;;;;;17.27;8.60;;;4.60;99.90;;;;;;7569420;19;20611;-76
2023/04/14 05:53:11;;;;;;;11.77;7.50;;;4.60;99.90;;;;;;7580273;19;20284;-78
2023/04/14 05:55:44;;;;;;;17.60;8.65;;;4.60;99.90;;;;;;7569564;19;20054;-75
2023/04/14 05:58:17;;;;;;;14.20;8.55;;;4.50;99.90;;;;;;7575092;19;20798;-77
2023/04/14 06:00:49;;;;;;;16.23;9.13;;;4.60;99.90;;;;;;7569414;19;20014;-76
2023/04/14 06:03:21;;;;;;;15.50;9.55;;;4.60;99.90;;;;;;7585195;19;20336;-77
2023/04/14 06:05:54;;;;;;;20.80;10.57;;;4.60;99.90;;;;;;7573782;19;20584;-77
2023/04/14 06:08:26;;;;;;;16.63;10.25;;;4.70;99.90;;;;;;7582654;19;20014;-77
2023/04/14 06:10:58;;;;;;;20.77;10.75;;;4.70;99.90;;;;;;7582361;19;20018;-77
2023/04/14 06:13:30;;;;;;;19.25;11.93;;;4.70;99.90;;;;;;7591252;19;20094;-77
2023/04/14 06:16:07;;;;;;;21.25;11.73;;;4.70;99.90;;;;;;7604173;19;20024;-76
2023/04/14 06:18:40;;;;;;;23.63;12.40;;;4.70;99.90;;;;;;7597969;19;20015;-76
2023/04/14 06:21:12;;;;;;;30.20;14.00;;;4.80;99.90;;;;;;7602735;19;20910;-75
2023/04/14 06:23:44;;;;;;;25.63;14.90;;;4.70;99.90;;;;;;7599236;19;21360;-76
2023/04/14 06:26:17;;;;;;;28.52;14.05;;;4.80;99.90;;;;;;7602302;19;21047;-76
2023/04/14 06:28:49;;;;;;;31.38;13.60;;;4.80;99.90;;;;;;7597343;19;20590;-77
2023/04/14 06:31:21;;;;;;;27.40;14.05;;;4.80;99.90;;;;;;7603467;19;20025;-76
2023/04/14 06:33:54;;;;;;;23.58;13.52;;;4.70;99.90;;;;;;7597615;19;20022;-77
2023/04/14 06:36:26;;;;;;;29.58;13.95;;;4.80;99.90;;;;;;7603453;19;20028;-76
2023/04/14 06:38:59;;;;;;;24.20;12.85;;;4.80;99.90;;;;;;7582572;19;20955;-77
2023/04/14 06:41:32;;;;;;;26.00;13.90;;;4.90;99.90;;;;;;7585272;19;20010;-77
2023/04/14 06:44:08;;;;;;;30.90;15.13;;;4.90;99.90;;;;;;7598870;19;20014;-77
2023/04/14 06:46:40;;;;;;;29.85;15.45;;;4.90;99.90;;;;;;7595926;19;20019;-76
2023/04/14 06:49:14;;;;;;;23.02;12.73;;;5.00;99.90;;;;;;7598299;19;20023;-76
2023/04/14 06:51:46;;;;;;;23.17;13.02;;;4.90;99.90;;;;;;7595907;19;20021;-76
2023/04/14 06:54:18;;;;;;;24.58;14.18;;;4.90;99.90;;;;;;7604382;19;20022;-77
2023/04/14 06:56:50;;;;;;;23.17;13.10;;;4.90;99.90;;;;;;7590372;19;20055;-76
2023/04/14 06:59:26;;;;;;;22.02;12.45;;;5.00;99.90;;;;;;7603032;19;21557;-78
2023/04/14 07:01:59;;;;;;;16.48;10.00;;;4.90;99.90;;;;;;7601783;19;21500;-76
2023/04/14 07:04:34;;;;;;;15.77;10.27;;;4.90;99.90;;;;;;7599811;19;20557;-76
2023/04/14 07:07:06;;;;;;;22.65;11.18;;;5.00;99.90;;;;;;7602759;19;20295;-75
2023/04/14 07:09:38;;;;;;;22.35;10.70;;;5.00;99.90;;;;;;7599351;19;20051;-76
2023/04/14 07:12:15;;;;;;;23.55;10.82;;;5.10;99.90;;;;;;7598201;19;20060;-76
2023/04/14 07:14:51;;;;;;;18.25;10.52;;;5.10;99.90;;;;;;7596457;19;20114;-77
2023/04/14 07:17:23;;;;;;;17.05;10.00;;;5.10;99.90;;;;;;7609953;19;20014;-77
2023/04/14 07:19:55;;;;;;;19.08;11.60;;;5.00;99.90;;;;;;7589270;19;20022;-77
2023/04/14 07:22:28;;;;;;;18.20;11.00;;;5.00;99.90;;;;;;7589984;19;20019;-76
2023/04/14 07:25:00;;;;;;;17.85;10.50;;;5.10;99.90;;;;;;7583622;19;20963;-77
2023/04/14 07:27:33;;;;;;;19.75;10.65;;;5.10;99.90;;;;;;7586457;19;20059;-77
2023/04/14 07:30:05;;;;;;;15.57;8.52;;;5.10;99.90;;;;;;7603668;19;20637;-77
2023/04/14 07:32:39;;;;;;;12.02;7.72;;;5.10;99.90;;;;;;7592018;19;20015;-76
2023/04/14 07:35:12;;;;;;;13.73;7.75;;;5.00;99.90;;;;;;7598428;19;20014;-76
2023/04/14 07:37:45;;;;;;;14.10;7.45;;;5.10;99.90;;;;;;7589021;19;20018;-76
2023/04/14 07:40:19;;;;;;;12.43;6.57;;;5.10;99.90;;;;;;7585273;19;20022;-75
2023/04/14 07:42:51;;;;;;;17.37;8.00;;;5.20;99.90;;;;;;7596377;19;20043;-76
2023/04/14 07:45:23;;;;;;;11.38;7.10;;;5.10;99.90;;;;;;7594639;19;20546;-77
2023/04/14 07:47:56;;;;;;;11.88;6.20;;;5.10;99.90;;;;;;7583964;19;21418;-75
2023/04/14 07:50:29;;;;;;;10.30;6.45;;;5.00;99.90;;;;;;7589825;19;20010;-77
2023/04/14 07:53:01;;;;;;;10.02;6.18;;;5.10;99.90;;;;;;7568501;19;20034;-77
2023/04/14 07:55:33;;;;;;;11.82;5.95;;;5.10;99.90;;;;;;7599158;19;20018;-77
2023/04/14 07:58:06;;;;;;;9.90;5.22;;;5.10;99.90;;;;;;7591061;19;21161;-77
2023/04/14 08:00:39;;;;;;;10.00;5.90;;;5.10;99.90;;;;;;7567702;19;20414;-79
2023/04/14 08:03:12;;;;;;;7.45;5.05;;;5.10;99.90;;;;;;7569190;19;20161;-77
2023/04/14 08:05:45;;;;;;;10.70;5.78;;;5.10;99.90;;;;;;7593682;19;20022;-77
2023/04/14 08:08:18;;;;;;;15.15;6.18;;;5.10;99.90;;;;;;7581683;19;20018;-76
2023/04/14 08:10:50;;;;;;;11.48;7.32;;;5.20;99.90;;;;;;7578586;19;20022;-75
2023/04/14 08:13:22;;;;;;;9.93;5.93;;;5.20;99.90;;;;;;7588075;19;20072;-77
2023/04/14 08:15:55;;;;;;;9.20;5.38;;;5.10;99.90;;;;;;7574423;19;20037;-79
2023/04/14 08:18:27;;;;;;;9.63;6.07;;;5.20;99.90;;;;;;7547629;19;20011;-76
2023/04/14 08:21:00;;;;;;;7.85;4.95;;;5.20;99.90;;;;;;7572033;19;20014;-77
2023/04/14 08:23:33;;;;;;;9.20;5.82;;;5.20;99.90;;;;;;7580731;19;20064;-76
2023/04/14 08:26:05;;;;;;;11.02;5.57;;;5.20;99.90;;;;;;7595321;19;20051;-77
2023/04/14 08:28:38;;;;;;;11.93;6.00;;;5.30;99.90;;;;;;7584401;19;20018;-78
2023/04/14 08:31:10;;;;;;;11.80;6.03;;;5.30;99.90;;;;;;7575276;19;20041;-78
2023/04/14 08:33:42;;;;;;;12.18;7.20;;;5.30;99.90;;;;;;7579436;19;20018;-77
2023/04/14 08:36:15;;;;;;;7.33;4.30;;;5.30;99.90;;;;;;7585225;19;20014;-78
2023/04/14 08:38:48;;;;;;;7.72;4.95;;;5.30;99.90;;;;;;7570947;19;20014;-78
2023/04/14 08:41:20;;;;;;;8.98;4.50;;;5.40;99.90;;;;;;7583961;19;20034;-76
2023/04/14 08:43:53;;;;;;;8.68;5.47;;;5.40;99.90;;;;;;7579381;19;20013;-77
2023/04/14 08:46:26;;;;;;;10.40;4.60;;;5.40;99.90;;;;;;7598789;19;20894;-78
2023/04/14 08:49:06;;;;;;;10.82;6.07;;;5.40;99.90;;;;;;7586242;19;20356;-76
2023/04/14 08:51:44;;;;;;;12.75;5.55;;;5.50;99.90;;;;;;7578761;19;20026;-80
2023/04/14 08:54:18;;;;;;;10.20;5.78;;;5.60;99.90;;;;;;7575142;19;20022;-76
2023/04/14 08:56:51;;;;;;;9.20;6.03;;;5.60;99.90;;;;;;7532463;19;20014;-78
2023/04/14 08:59:23;;;;;;;12.70;6.93;;;5.60;99.90;;;;;;7524425;19;20026;-78
2023/04/14 09:01:57;;;;;;;11.48;6.38;;;5.80;99.90;;;;;;7562454;19;20059;-78
2023/04/14 09:04:30;;;;;;;14.52;8.27;;;5.80;99.90;;;;;;7552281;19;20831;-78
2023/04/14 09:07:03;;;;;;;12.43;7.68;;;5.80;99.90;;;;;;7571590;19;20034;-77
2023/04/14 09:09:36;;;;;;;15.13;8.18;;;5.90;99.90;;;;;;7568643;19;20014;-78
2023/04/14 09:12:10;;;;;;;13.98;8.60;;;6.00;99.90;;;;;;7571601;19;20002;-80
2023/04/14 09:14:46;;;;;;;;;;;5.90;99.90;;;;;;7548992;19;20018;-78
2023/04/14 09:17:19;;;;;;;15.60;9.23;;;6.00;99.90;;;;;;7502786;19;20009;-77
2023/04/14 09:19:52;;;;;;;15.98;9.45;;;6.00;99.90;;;;;;7502826;19;20633;-76
2023/04/14 09:22:44;;;;;;;17.10;9.38;;;6.00;99.90;;;;;;7532301;19;20015;-77
2023/04/14 09:25:18;;;;;;;13.73;8.95;;;6.10;99.90;;;;;;7570442;19;20018;-76
2023/04/14 09:27:51;;;;;;;11.80;8.07;;;6.00;99.90;;;;;;7554642;19;20010;-78
2023/04/14 09:30:23;;;;;;;20.20;10.63;;;6.10;99.90;;;;;;7577822;19;20025;-77
2023/04/14 09:32:56;;;;;;;16.10;8.97;;;6.10;99.90;;;;;;7550018;19;20090;-76
2023/04/14 09:35:49;;;;;;;18.63;9.60;;;6.00;99.90;;;;;;7575046;19;20589;-76
2023/04/14 09:38:40;;;;;;;25.13;9.90;;;6.10;99.90;;;;;;7563115;19;20052;-76
2023/04/14 09:41:21;;;;;;;21.23;10.48;;;6.00;99.90;;;;;;7561306;19;20018;-77
2023/04/14 09:43:54;;;;;;;16.40;8.80;;;6.10;99.90;;;;;;7558759;19;20018;-77
2023/04/14 09:46:26;;;;;;;16.23;9.02;;;6.10;99.90;;;;;;7563051;19;20078;-76
2023/04/14 09:48:59;;;;;;;18.73;9.35;;;6.10;99.90;;;;;;7577089;19;20760;-77
2023/04/14 09:51:32;;;;;;;16.25;9.02;;;6.10;99.90;;;;;;7573391;19;20018;-75
2023/04/14 09:54:04;;;;;;;21.33;11.40;;;6.10;99.90;;;;;;7575761;19;20021;-76
2023/04/14 09:56:44;;;;;;;14.75;8.43;;;6.30;99.90;;;;;;7582849;19;20018;-77
2023/04/14 09:59:37;;;;;;;17.27;9.48;;;6.50;99.90;;;;;;7554668;19;20804;-78
2023/04/14 10:02:10;;;;;;;14.65;8.45;;;6.60;99.90;;;;;;7544994;19;20021;-79
2023/04/14 10:04:43;;;;;;;17.02;8.35;;;6.60;99.90;;;;;;7555443;19;20033;-80
2023/04/14 10:07:18;;;;;;;14.98;7.90;;;6.70;99.90;;;;;;7560644;19;20493;-78
2023/04/14 10:09:50;;;;;;;12.05;7.10;;;6.70;99.90;;;;;;7509369;19;20082;-77
2023/04/14 10:12:23;;;;;;;13.40;5.65;;;6.70;99.90;;;;;;7531623;19;20017;-76
2023/04/14 10:14:55;;;;;;;13.57;7.75;;;6.70;99.90;;;;;;7547094;19;20014;-77
2023/04/14 10:17:28;;;;;;;9.80;5.32;;;6.70;99.90;;;;;;7526421;19;20029;-76
2023/04/14 10:20:05;;;;;;;15.68;6.85;;;6.80;99.90;;;;;;7559996;19;20010;-78
2023/04/14 10:22:38;;;;;;;16.77;7.13;;;7.00;99.90;;;;;;7569998;19;20030;-78
2023/04/14 10:25:12;;;;;;;8.88;6.00;;;7.10;99.90;;;;;;7530248;19;20908;-75
2023/04/14 10:27:45;;;;;;;13.45;7.60;;;7.10;99.90;;;;;;7522936;19;20014;-75
2023/04/14 10:30:17;;;;;;;12.82;7.43;;;7.20;99.90;;;;;;7536559;19;20613;-76
2023/04/14 10:32:50;;;;;;;10.77;6.88;;;7.20;99.90;;;;;;7543498;19;20340;-76
2023/04/14 10:35:22;;;;;;;11.07;6.90;;;7.30;99.90;;;;;;7535247;19;21143;-76
2023/04/14 10:37:55;;;;;;;12.23;7.03;;;7.30;99.90;;;;;;7476825;19;20756;-75
2023/04/14 10:40:43;;;;;;;14.23;8.13;;;7.40;99.90;;;;;;7554441;19;20891;-75
2023/04/14 10:43:16;;;;;;;10.88;6.50;;;7.50;99.90;;;;;;7543614;19;25298;-75
2023/04/14 10:45:55;;;;;;;12.23;6.85;;;7.60;99.90;;;;;;7511469;19;20488;-76
2023/04/14 10:48:32;;;;;;;11.27;7.05;;;7.70;99.90;;;;;;7495001;19;20015;-76
2023/04/14 10:51:09;;;;;;;12.95;7.75;;;7.80;99.90;;;;;;7519383;19;20388;-76
2023/04/14 10:53:54;;;;;;;12.80;8.52;;;7.90;99.90;;;;;;7496339;19;20672;-76
2023/04/14 10:56:28;;;;;;;15.27;7.80;;;8.00;99.90;;;;;;7505814;19;20018;-76
2023/04/14 10:59:01;;;;;;;11.50;6.22;;;8.00;99.90;;;;;;7546812;19;20867;-74
2023/04/14 11:01:35;;;;;;;13.65;8.25;;;8.00;99.90;;;;;;7571948;19;20018;-78
2023/04/14 11:04:19;;;;;;;13.02;6.45;;;8.20;99.90;;;;;;7566931;19;20030;-76
2023/04/14 11:06:53;;;;;;;10.15;4.68;;;8.20;99.90;;;;;;7567564;19;20106;-76
2023/04/14 11:09:29;;;;;;;7.82;4.63;;;8.10;99.90;;;;;;7576658;19;20014;-77
2023/04/14 11:12:20;;;;;;;8.27;4.50;;;8.10;99.90;;;;;;7537347;19;20018;-76
2023/04/14 11:15:12;;;;;;;6.72;4.55;;;8.10;99.90;;;;;;7542799;19;20010;-76
2023/04/14 11:17:44;;;;;;;10.30;5.70;;;8.10;99.90;;;;;;7560460;19;20025;-77
2023/04/14 11:20:21;;;;;;;10.52;6.55;;;8.20;99.90;;;;;;7524927;19;20986;-75
2023/04/14 11:22:57;;;;;;;9.30;5.95;;;8.20;99.90;;;;;;7570569;19;20018;-77
2023/04/14 11:25:35;;;;;;;14.77;6.45;;;8.20;99.90;;;;;;7571387;19;20124;-77
2023/04/14 11:28:09;;;;;;;11.05;6.38;;;8.30;99.90;;;;;;7554191;19;20014;-77
2023/04/14 11:30:42;;;;;;;13.95;7.47;;;8.40;99.90;;;;;;7572917;19;21797;-76
2023/04/14 11:33:17;;;;;;;7.80;6.47;;;8.60;99.90;;;;;;7561933;19;20549;-76
2023/04/14 11:35:50;;;;;;;8.73;6.00;;;8.60;99.90;;;;;;7551889;19;20021;-75
2023/04/14 11:38:24;;;;;;;8.95;5.18;;;8.50;99.90;;;;;;7530976;19;20113;-76
2023/04/14 11:41:00;;;;;;;13.20;5.90;;;8.70;99.90;;;;;;7504375;19;21109;-76
2023/04/14 11:43:36;;;;;;;12.40;7.20;;;8.90;99.90;;;;;;7519977;19;20019;-78
2023/04/14 11:46:08;;;;;;;11.50;6.68;;;8.90;99.90;;;;;;7553264;19;21000;-77
2023/04/14 11:48:41;;;;;;;10.18;5.38;;;9.00;99.90;;;;;;7557185;19;20921;-76
2023/04/14 11:51:13;;;;;;;9.98;5.70;;;9.20;99.90;;;;;;7554840;19;20017;-76
2023/04/14 11:53:45;;;;;;;10.57;6.18;;;9.20;99.90;;;;;;7557733;19;20106;-76
2023/04/14 11:56:18;;;;;;;10.30;6.57;;;9.50;99.90;;;;;;7523916;19;20062;-76
2023/04/14 11:58:58;;;;;;;8.88;5.25;;;9.60;99.90;;;;;;7533427;19;20010;-76
2023/04/14 12:01:31;;;;;;;9.57;5.07;;;9.70;99.90;;;;;;7532520;19;20097;-76
2023/04/14 12:04:05;;;;;;;7.30;5.27;;;9.70;99.90;;;;;;7544078;19;20015;-77
2023/04/14 12:06:40;;;;;;;8.90;6.53;;;9.60;99.90;;;;;;7585016;19;20018;-75
2023/04/14 12:09:13;;;;;;;6.88;5.25;;;9.80;99.90;;;;;;7580013;19;20052;-74
2023/04/14 12:11:55;;;;;;;7.53;5.45;;;9.90;99.90;;;;;;7587877;19;20494;-74
2023/04/14 12:14:27;;;;;;;10.10;4.68;;;9.80;99.90;;;;;;7581905;19;20018;-74
2023/04/14 12:16:59;;;;;;;10.00;5.13;;;9.70;99.90;;;;;;7599354;19;20039;-74
2023/04/14 12:19:32;;;;;;;10.98;5.15;;;9.60;99.90;;;;;;7617256;19;20025;-74
2023/04/14 12:22:06;;;;;;;8.13;5.13;;;9.70;99.90;;;;;;7571890;19;20018;-75
2023/04/14 12:24:41;;;;;;;8.60;4.93;;;9.40;99.90;;;;;;7599014;19;20122;-75
2023/04/14 12:27:24;;;;;;;5.68;3.47;;;9.30;99.90;;;;;;7597202;19;20349;-74
2023/04/14 12:29:57;;;;;;;7.15;4.15;;;9.00;99.90;;;;;;7568299;19;20014;-73
2023/04/14 12:32:39;;;;;;;6.53;3.78;;;9.00;99.90;;;;;;7592181;19;20018;-74
2023/04/14 12:35:12;;;;;;;9.50;4.03;;;8.80;99.90;;;;;;7587231;19;20106;-74
2023/04/14 12:37:48;;;;;;;7.07;3.92;;;8.80;99.90;;;;;;7579528;19;20018;-74
2023/04/14 12:40:42;;;;;;;7.63;4.82;;;8.90;99.90;;;;;;7581684;19;20014;-73
2023/04/14 12:43:15;;;;;;;5.32;3.35;;;9.30;99.90;;;;;;7583847;19;20891;-74
2023/04/14 12:45:49;;;;;;;3.65;2.88;;;9.80;99.90;;;;;;7580830;19;21357;-73
2023/04/14 12:48:42;;;;;;;4.82;2.42;;;10.40;99.90;;;;;;7588021;19;20037;-74
2023/04/14 12:51:17;;;;;;;4.20;2.33;;;10.90;99.90;;;;;;7582496;19;20923;-73
2023/04/14 12:53:50;;;;;;;1.70;1.40;;;11.00;99.90;;;;;;7588000;19;20047;-74
2023/04/14 12:56:22;;;;;;;2.58;1.73;;;11.40;99.90;;;;;;7597024;19;20029;-72
2023/04/14 12:59:02;;;;;;;2.58;1.70;;;11.80;99.90;;;;;;7574312;19;20014;-75
2023/04/14 13:01:35;;;;;;;3.15;2.00;;;12.00;98.80;;;;;;7577677;19;20011;-73
2023/04/14 13:04:08;;;;;;;3.53;2.00;;;12.00;97.90;;;;;;7570464;19;20041;-73
2023/04/14 13:06:41;;;;;;;3.80;2.33;;;11.80;93.90;;;;;;7573870;19;20022;-72
2023/04/14 13:09:14;;;;;;;5.80;2.45;;;11.80;94.70;;;;;;7568038;19;20054;-73
2023/04/14 13:11:46;;;;;;;4.82;3.10;;;11.50;93.90;;;;;;7572998;19;20458;-73
2023/04/14 13:14:18;;;;;;;6.43;3.17;;;11.50;96.80;;;;;;7560207;19;20090;-73
2023/04/14 13:16:51;;;;;;;6.10;2.50;;;11.60;95.60;;;;;;7561823;19;20006;-73
2023/04/14 13:19:25;;;;;;;6.20;3.13;;;11.70;91.40;;;;;;7589362;19;20018;-72
2023/04/14 13:21:58;;;;;;;6.45;3.00;;;11.60;93.70;;;;;;7560679;19;20102;-73
2023/04/14 13:24:30;;;;;;;3.75;2.90;;;11.50;91.50;;;;;;7559618;19;20026;-72
2023/04/14 13:27:02;;;;;;;3.55;2.63;;;11.70;91.10;;;;;;7561793;19;20114;-73